West Lorne, Canada
Current Conditions -  °F | °C
As of 2:00 AM on Monday 22 Dec 2014 (Local Time) from CYCK Reporting Station
Overcast Overcast  
Wind Chill: 24°   Ceiling: 2300
Heat Index: 32°   Visibility: 9mi
Dew Point: 25°   Wind: 9mph
Humidity: 75%   Direction: 140°SE
Pressure: 30.17"   Gusts: NA
Location:  42.6°N, 81.6°W
Report Text: CYCK 220700Z AUTO 14008KT 9SM OVC023 M00/M04 A3017 RMK SLP225
Loading
Personal Weather Stations






























Interactive Weather Map New forecast layout! Learn more

10-Day Weather Forecast

Advertisements
Track Severe Weather on mobile